^^
Station Historical Data
Daily Summary for February 15, 2017 Units:  Metric    English   Both
« Previous Day
Next Day »
Daily Weekly Monthly Yearly Custom
  High: Low: Average:
Temperature: 38.6 °C 23.9 °C 32.1 °C
Dew Point: 6.4 °C 2.1 °C 4.4 °C
Humidity: 26% 13% 18%
Wind Speed: 35.2km/h 0km/h 14.6km/h
Wind Gust: 40.2km/h - -
Wind- - WSW
Pressure: 1008.4 hPa 1001.6 hPa -
Precipitation: 0 mm    
Historical Graphs
 
 
Tabular Data for February 15, 2017
Time Temperature Dew Point Pressure Wind Wind Speed Wind Gust Humidity Rainfall Rate (Hourly) solar Conditions
13:58 35.6 °C 5 °C 1004.6 hPa Calm   4.8 km/h 15% 0 mm 930.0 W/m2
14:02 36.2 °C 4.5 °C 1004.6 hPa WNW 4.7 km/h 11.3 km/h 14% 0 mm 921.0 W/m2
14:17 36.7 °C 5.9 °C 1004.6 hPa Calm   11.3 km/h 15% 0 mm 900.0 W/m2
14:27 36.6 °C 5.8 °C 1004.3 hPa NW 13 km/h 13 km/h 15% 0 mm 886.0 W/m2
14:43 36.8 °C 5.9 °C 1004.3 hPa Calm   19.3 km/h 15% 0 mm 870.0 W/m2
14:47 37.1 °C 5.2 °C 1003.9 hPa NW 20.9 km/h 24.1 km/h 14% 0 mm 853.0 W/m2
14:57 37.2 °C 6.2 °C 1003.9 hPa NW 17.7 km/h 20.9 km/h 15% 0 mm 833.0 W/m2
15:13 37.4 °C 6.4 °C 1003.6 hPa NW 3.2 km/h 20.9 km/h 15% 0 mm 803.0 W/m2
15:23 37.6 °C 5.6 °C 1003.3 hPa NNW 19.5 km/h 19.5 km/h 14% 0 mm 777.0 W/m2
15:38 37.8 °C 5.7 °C 1002.9 hPa NW 11.1 km/h 22.5 km/h 14% 0 mm 740.0 W/m2
15:54 38.3 °C 6.1 °C 1002.9 hPa NW 3.2 km/h 9.7 km/h 14% 0 mm 698.0 W/m2
16:15 38.1 °C 6 °C 1002.6 hPa NW 19.5 km/h 19.5 km/h 14% 0 mm 652.0 W/m2
16:24 38.2 °C 6 °C 1002.3 hPa WNW 3.2 km/h 17.7 km/h 14% 0 mm 606.0 W/m2
16:34 38.4 °C 5.1 °C 1001.9 hPa NW 13 km/h 24.1 km/h 13% 0 mm 577.0 W/m2
16:50 38.6 °C 5.3 °C 1001.9 hPa NW 17.7 km/h 17.7 km/h 13% 0 mm 545.0 W/m2
17:06 38.4 °C 5.1 °C 1001.6 hPa NW 13 km/h 17.7 km/h 13% 0 mm 494.0 W/m2
17:19 38.2 °C 5 °C 1001.9 hPa SSW 35.2 km/h 40.2 km/h 13% 0 mm 441.0 W/m2
17:26 37.1 °C 4.1 °C 1001.9 hPa SSW 25.9 km/h 37 km/h 13% 0 mm 403.0 W/m2
22:32 25.5 °C 2.2 °C 1007.7 hPa SSW 24.1 km/h 25.7 km/h 22% 0 mm 0.0 W/m2
22:40 25.4 °C 2.1 °C 1008 hPa SSW 24.1 km/h 24.1 km/h 22% 0 mm 0.0 W/m2
22:46 25.3 °C 2.1 °C 1008 hPa SSW 19.5 km/h 27.4 km/h 22% 0 mm 0.0 W/m2
23:11 24.8 °C 2.9 °C 1008 hPa SW 20.9 km/h 25.7 km/h 24% 0 mm 0.0 W/m2
23:17 24.7 °C 2.8 °C 1008 hPa SSW 16.3 km/h 27.4 km/h 24% 0 mm 0.0 W/m2
23:22 24.6 °C 2.7 °C 1008 hPa SSW 17.7 km/h 20.9 km/h 24% 0 mm 0.0 W/m2
23:27 24.6 °C 3.3 °C 1008 hPa SSW 16.3 km/h 29 km/h 25% 0 mm 0.0 W/m2
23:32 24.4 °C 3.1 °C 1008.4 hPa SSW 16.3 km/h 20.9 km/h 25% 0 mm 0.0 W/m2
23:37 24.3 °C 3 °C 1008.4 hPa SSW 19.5 km/h 19.5 km/h 25% 0 mm 0.0 W/m2
23:42 24.2 °C 3.5 °C 1008.4 hPa SSW 16.3 km/h 17.7 km/h 26% 0 mm 0.0 W/m2
23:47 24.1 °C 3.4 °C 1008.4 hPa SSW 13 km/h 20.9 km/h 26% 0 mm 0.0 W/m2
23:52 23.9 °C 3.2 °C 1008.4 hPa SSW 19.5 km/h 22.5 km/h 26% 0 mm 0.0 W/m2
23:57 23.9 °C 3.2 °C 1008.4 hPa South 9.7 km/h 20.9 km/h 26% 0 mm 0.0 W/m2
Canyon Roadhouse, Fishriver Canyon, Namibia
Compliments of Weather Underground - 1.75 mb